CDT,Max TemperatureF,Mean TemperatureF,Min TemperatureF,Max Dew PointF,MeanDew PointF,Min DewpointF,Max Humidity, Mean Humidity, Min Humidity, Max Sea Level PressureIn, Mean Sea Level PressureIn, Min Sea Level PressureIn, Max VisibilityMiles, Mean VisibilityMiles, Min VisibilityMiles, Max Wind SpeedMPH, Mean Wind SpeedMPH, Max Gust SpeedMPH,PrecipitationIn, CloudCover, Events, WindDirDegrees
2011-10-1,70,57,43,41,38,34,83,57,31,30.34,30.26,30.20,10,10,10,14,7,16,0.00,0,,160
2011-10-2,78,63,47,45,41,39,76,52,27,30.26,30.19,30.11,10,10,10,16,8,21,0.00,0,,157
2011-10-3,83,66,48,45,42,39,71,47,23,30.20,30.15,30.09,10,10,10,20,9,24,0.00,0,,150
2011-10-4,89,74,58,52,48,41,57,42,27,30.13,30.07,29.99,10,10,10,18,11,22,0.00,2,,158
2011-10-5,84,71,57,50,44,39,67,44,20,30.08,30.03,29.96,10,10,10,28,13,32,0.00,0,,158
2011-10-6,83,70,57,51,46,42,62,46,30,30.00,29.93,29.84,10,10,10,36,19,46,0.00,2,,153
2011-10-7,83,75,66,61,56,48,60,54,47,29.96,29.90,29.87,10,10,10,32,21,41,0.00,5,,162
2011-10-8,78,72,65,65,58,52,87,68,49,30.09,30.02,29.96,10,10,7,26,14,36,0.03,7,Rain,164
2011-10-9,83,72,60,63,56,49,93,62,31,30.14,30.07,29.99,10,10,10,26,12,35,0.00,6,,157
2011-10-10,72,65,57,59,56,51,97,73,49,30.05,30.00,29.92,10,10,10,14,8,20,0.04,5,Rain,184
2011-10-11,77,65,52,58,52,48,100,69,38,29.94,29.84,29.74,10,10,7,25,12,30,0.00,4,Fog,160
2011-10-12,70,62,54,59,54,46,93,77,60,29.79,29.72,29.68,10,10,6,26,6,35,0.20,6,Rain-Thunderstorm,313
2011-10-13,73,61,48,46,40,34,77,52,26,29.85,29.81,29.75,10,10,10,28,12,33,0.00,0,,309
2011-10-14,64,55,45,38,33,28,61,44,27,30.05,29.95,29.83,10,10,10,28,13,36,0.00,2,,301
2011-10-15,72,55,38,45,36,30,79,53,26,30.08,29.94,29.72,10,10,10,20,8,26,0.00,1,,176
2011-10-16,64,53,42,46,39,32,77,55,32,30.08,29.98,29.70,10,10,10,21,9,28,0.00,3,,341
2011-10-17,52,47,41,44,39,35,83,69,54,30.09,30.04,30.01,10,10,5,16,7,20,0.09,7,Rain,308
2011-10-18,54,45,36,39,32,25,79,57,35,30.11,30.07,30.00,10,10,10,25,13,33,0.00,4,,337
2011-10-19,49,40,30,29,26,23,78,58,38,30.16,30.11,30.08,10,10,10,23,12,28,0.00,1,,351
2011-10-20,55,43,31,32,30,28,92,67,41,30.11,30.08,30.03,10,10,10,16,5,22,0.00,1,,335
2011-10-21,69,51,33,45,35,30,89,60,30,30.14,30.09,30.04,10,10,10,12,4,15,0.00,2,,172
2011-10-22,60,50,40,53,45,39,100,79,57,30.15,30.09,30.03,10,9,0,8,2,9,0.03,6,Fog-Rain,355
2011-10-23,78,60,41,53,44,39,100,63,26,30.03,29.97,29.86,10,4,0,18,6,23,0.00,3,Fog,180
2011-10-24,77,60,42,46,40,36,89,57,24,30.11,29.98,29.78,10,10,10,23,9,29,0.00,2,,157
2011-10-25,75,62,48,51,44,36,67,52,36,30.03,29.78,29.67,10,10,10,26,14,32,0.00,3,,268
2011-10-26,53,49,44,41,37,34,76,65,54,30.14,30.10,30.04,10,10,10,18,11,22,0.00,7,,341
2011-10-27,57,46,34,34,29,22,82,54,25,30.18,30.15,30.11,10,10,10,15,6,28,0.00,3,,296
2011-10-28,58,47,36,32,24,18,70,46,21,30.22,30.18,30.15,10,10,10,23,8,29,0.00,1,,307
2011-10-29,63,47,30,30,27,24,78,51,23,30.16,30.00,29.82,10,10,10,23,9,26,0.00,4,,157
2011-10-30,61,49,37,36,29,22,65,44,23,30.09,29.99,29.82,10,10,10,29,13,36,0.00,3,,312
2011-10-31,64,47,30,31,27,24,85,54,23,30.12,30.03,29.90,10,10,10,18,8,21,0.00,0,,162